createdAt,value
2022-10-07T00:22:16.000Z,11.8
2022-10-07T00:52:17.000Z,11.2
2022-10-07T01:22:20.533Z,10.3
2022-10-07T01:52:31.600Z,9.5
2022-10-07T02:22:35.634Z,8.8
2022-10-07T02:52:45.532Z,8.8
2022-10-07T03:22:46.670Z,8.7
2022-10-07T03:52:50.775Z,8.8
2022-10-07T04:22:55.221Z,8.7
2022-10-07T04:52:58.000Z,8.4
2022-10-07T05:23:03.354Z,7.9
2022-10-07T05:53:07.254Z,7.5
2022-10-07T06:23:11.266Z,8
2022-10-07T06:53:12.000Z,8.8
2022-10-07T07:23:16.256Z,9.5
2022-10-07T07:53:17.291Z,10.4
2022-10-07T08:23:19.000Z,11.5
2022-10-07T08:53:20.000Z,13.0
2022-10-07T09:23:22.344Z,15.3
2022-10-07T09:53:26.384Z,16.4
2022-10-07T10:23:27.595Z,16.5
2022-10-07T10:53:38.606Z,16.8
2022-10-07T11:23:39.589Z,17.5
2022-10-07T11:53:39.000Z,17.2
2022-10-07T12:23:40.680Z,18.3
2022-10-07T12:53:49.720Z,19.7
2022-10-07T13:23:51.756Z,20.1
2022-10-07T13:53:54.000Z,20.8
2022-10-07T14:23:57.098Z,20.9
2022-10-07T14:53:58.985Z,19.5
2022-10-07T15:24:01.847Z,17.5
2022-10-07T15:54:06.846Z,16.2
2022-10-07T16:24:09.856Z,15
2022-10-07T16:54:17.882Z,14.1
2022-10-07T17:24:21.003Z,13.2
2022-10-07T17:54:22.931Z,12.5
2022-10-07T18:24:27.908Z,12.2
2022-10-07T18:54:32.000Z,11.8
2022-10-07T19:24:36.930Z,11.3
2022-10-07T19:54:39.163Z,11
2022-10-07T20:24:43.037Z,10.9
2022-10-07T20:54:52.923Z,10.8
2022-10-07T21:24:53.000Z,10.9
2022-10-07T21:54:57.000Z,10.5
2022-10-07T22:25:01.000Z,10.5
2022-10-07T22:55:02.000Z,10.2
2022-10-07T23:25:06.000Z,9.8
2022-10-07T23:55:07.000Z,10.1
